sensor_id;sensor_type;location;lat;lon;timestamp;pressure;altitude;pressure_sealevel;temperature;humidity
55032;BME280;40928;51.076;7.950;2023-01-15T00:01:51;95429.44;;;6.09;100.00
55032;BME280;40928;51.076;7.950;2023-01-15T00:04:16;95437.75;;;6.18;100.00
55032;BME280;40928;51.076;7.950;2023-01-15T00:06:43;95427.47;;;6.00;100.00
55032;BME280;40928;51.076;7.950;2023-01-15T00:09:13;95436.63;;;5.92;100.00
55032;BME280;40928;51.076;7.950;2023-01-15T00:11:39;95429.66;;;5.86;100.00
55032;BME280;40928;51.076;7.950;2023-01-15T00:14:05;95445.75;;;5.79;100.00
55032;BME280;40928;51.076;7.950;2023-01-15T00:16:33;95448.16;;;5.58;100.00
55032;BME280;40928;51.076;7.950;2023-01-15T00:19:00;95441.56;;;5.61;100.00
55032;BME280;40928;51.076;7.950;2023-01-15T00:21:26;95434.00;;;5.47;100.00
55032;BME280;40928;51.076;7.950;2023-01-15T00:23:53;95452.75;;;5.46;100.00
55032;BME280;40928;51.076;7.950;2023-01-15T00:26:39;95449.38;;;5.28;100.00
55032;BME280;40928;51.076;7.950;2023-01-15T00:29:24;95446.53;;;5.35;100.00
55032;BME280;40928;51.076;7.950;2023-01-15T00:31:54;95445.28;;;5.21;100.00
55032;BME280;40928;51.076;7.950;2023-01-15T00:34:20;95437.94;;;5.06;100.00
55032;BME280;40928;51.076;7.950;2023-01-15T00:36:46;95427.34;;;5.06;100.00
55032;BME280;40928;51.076;7.950;2023-01-15T00:39:12;95453.16;;;4.98;100.00
55032;BME280;40928;51.076;7.950;2023-01-15T00:41:38;95442.34;;;5.00;100.00
55032;BME280;40928;51.076;7.950;2023-01-15T00:44:04;95451.00;;;4.95;100.00
55032;BME280;40928;51.076;7.950;2023-01-15T00:46:30;95448.38;;;4.95;100.00
55032;BME280;40928;51.076;7.950;2023-01-15T00:48:56;95442.75;;;4.92;100.00
55032;BME280;40928;51.076;7.950;2023-01-15T00:51:22;95454.31;;;4.85;100.00
55032;BME280;40928;51.076;7.950;2023-01-15T00:53:48;95455.19;;;4.91;100.00
55032;BME280;40928;51.076;7.950;2023-01-15T00:56:14;95457.00;;;4.91;100.00
55032;BME280;40928;51.076;7.950;2023-01-15T00:58:40;95458.78;;;4.85;100.00
55032;BME280;40928;51.076;7.950;2023-01-15T01:01:07;95450.59;;;4.69;100.00
55032;BME280;40928;51.076;7.950;2023-01-15T01:03:33;95463.75;;;4.64;100.00
55032;BME280;40928;51.076;7.950;2023-01-15T01:06:03;95472.16;;;4.61;100.00
55032;BME280;40928;51.076;7.950;2023-01-15T01:08:32;95467.34;;;4.58;100.00
55032;BME280;40928;51.076;7.950;2023-01-15T01:11:06;95482.00;;;4.49;100.00
55032;BME280;40928;51.076;7.950;2023-01-15T01:13:35;95474.28;;;4.47;100.00
55032;BME280;40928;51.076;7.950;2023-01-15T01:16:02;95474.53;;;4.46;100.00
55032;BME280;40928;51.076;7.950;2023-01-15T01:18:28;95474.13;;;4.37;100.00
55032;BME280;40928;51.076;7.950;2023-01-15T01:20:54;95476.44;;;4.33;100.00
55032;BME280;40928;51.076;7.950;2023-01-15T01:23:23;95475.06;;;4.31;100.00
55032;BME280;40928;51.076;7.950;2023-01-15T01:25:48;95476.81;;;4.25;100.00
55032;BME280;40928;51.076;7.950;2023-01-15T01:28:14;95477.44;;;4.15;100.00
55032;BME280;40928;51.076;7.950;2023-01-15T01:30:40;95486.81;;;4.23;100.00
55032;BME280;40928;51.076;7.950;2023-01-15T01:33:06;95506.50;;;4.15;100.00
55032;BME280;40928;51.076;7.950;2023-01-15T01:35:32;95496.53;;;4.05;100.00
55032;BME280;40928;51.076;7.950;2023-01-15T01:37:58;95513.84;;;4.13;100.00
55032;BME280;40928;51.076;7.950;2023-01-15T01:40:23;95512.28;;;4.00;100.00
55032;BME280;40928;51.076;7.950;2023-01-15T01:42:49;95530.78;;;4.00;100.00
55032;BME280;40928;51.076;7.950;2023-01-15T01:45:25;95534.22;;;4.01;100.00
55032;BME280;40928;51.076;7.950;2023-01-15T01:47:55;95535.94;;;3.95;100.00
55032;BME280;40928;51.076;7.950;2023-01-15T01:50:25;95539.53;;;3.89;100.00
55032;BME280;40928;51.076;7.950;2023-01-15T01:52:59;95551.69;;;3.90;100.00
55032;BME280;40928;51.076;7.950;2023-01-15T01:55:28;95565.38;;;3.87;100.00
55032;BME280;40928;51.076;7.950;2023-01-15T01:57:58;95569.50;;;3.83;100.00
55032;BME280;40928;51.076;7.950;2023-01-15T02:00:25;95567.44;;;3.85;100.00
55032;BME280;40928;51.076;7.950;2023-01-15T02:02:52;95554.25;;;3.73;100.00
55032;BME280;40928;51.076;7.950;2023-01-15T02:05:30;95555.28;;;3.72;100.00
55032;BME280;40928;51.076;7.950;2023-01-15T02:07:56;95541.63;;;3.63;100.00
55032;BME280;40928;51.076;7.950;2023-01-15T02:10:22;95513.16;;;3.65;100.00
55032;BME280;40928;51.076;7.950;2023-01-15T02:13:43;95520.97;;;3.60;100.00
55032;BME280;40928;51.076;7.950;2023-01-15T02:15:49;95522.47;;;3.56;100.00
55032;BME280;40928;51.076;7.950;2023-01-15T02:23:59;95514.66;;;3.61;100.00
55032;BME280;40928;51.076;7.950;2023-01-15T02:27:04;95502.97;;;3.57;100.00
55032;BME280;40928;51.076;7.950;2023-01-15T02:35:27;95505.75;;;3.50;100.00
55032;BME280;40928;51.076;7.950;2023-01-15T02:37:58;95496.09;;;3.44;100.00
55032;BME280;40928;51.076;7.950;2023-01-15T02:40:26;95487.84;;;3.40;100.00
55032;BME280;40928;51.076;7.950;2023-01-15T02:42:53;95487.28;;;3.38;100.00
55032;BME280;40928;51.076;7.950;2023-01-15T02:45:25;95480.38;;;3.37;100.00
55032;BME280;40928;51.076;7.950;2023-01-15T02:47:53;95477.28;;;3.40;100.00
55032;BME280;40928;51.076;7.950;2023-01-15T02:50:25;95479.34;;;3.38;100.00
55032;BME280;40928;51.076;7.950;2023-01-15T02:52:55;95476.59;;;3.33;100.00
55032;BME280;40928;51.076;7.950;2023-01-15T02:55:31;95479.34;;;3.38;100.00
55032;BME280;40928;51.076;7.950;2023-01-15T02:58:03;95484.28;;;3.34;100.00
55032;BME280;40928;51.076;7.950;2023-01-15T03:00:36;95476.94;;;3.37;100.00
55032;BME280;40928;51.076;7.950;2023-01-15T03:03:12;95469.72;;;3.44;100.00
55032;BME280;40928;51.076;7.950;2023-01-15T03:06:03;95475.22;;;3.42;100.00
55032;BME280;40928;51.076;7.950;2023-01-15T03:08:30;95469.84;;;3.37;100.00
55032;BME280;40928;51.076;7.950;2023-01-15T03:11:07;95465.59;;;3.36;100.00
55032;BME280;40928;51.076;7.950;2023-01-15T03:14:03;95474.41;;;3.42;100.00
55032;BME280;40928;51.076;7.950;2023-01-15T03:16:51;95480.25;;;3.44;100.00
55032;BME280;40928;51.076;7.950;2023-01-15T03:19:38;95479.44;;;3.43;100.00
55032;BME280;40928;51.076;7.950;2023-01-15T03:22:31;95479.81;;;3.47;100.00
55032;BME280;40928;51.076;7.950;2023-01-15T03:25:15;95486.81;;;3.41;100.00
55032;BME280;40928;51.076;7.950;2023-01-15T03:27:49;95482.78;;;3.39;100.00
55032;BME280;40928;51.076;7.950;2023-01-15T03:30:19;95491.72;;;3.38;100.00
55032;BME280;40928;51.076;7.950;2023-01-15T03:32:46;95493.00;;;3.23;100.00
55032;BME280;40928;51.076;7.950;2023-01-15T03:38:22;95493.25;;;3.22;100.00
55032;BME280;40928;51.076;7.950;2023-01-15T03:40:58;95482.56;;;3.16;100.00
55032;BME280;40928;51.076;7.950;2023-01-15T03:49:03;95465.94;;;3.16;100.00
55032;BME280;40928;51.076;7.950;2023-01-15T03:51:52;95477.28;;;3.16;100.00
55032;BME280;40928;51.076;7.950;2023-01-15T03:54:26;95487.84;;;3.16;100.00
55032;BME280;40928;51.076;7.950;2023-01-15T03:57:06;95486.59;;;3.19;100.00
55032;BME280;40928;51.076;7.950;2023-01-15T03:59:47;95484.63;;;3.14;100.00
55032;BME280;40928;51.076;7.950;2023-01-15T04:02:17;95491.38;;;3.22;100.00
55032;BME280;40928;51.076;7.950;2023-01-15T04:04:44;95484.75;;;3.19;100.00
55032;BME280;40928;51.076;7.950;2023-01-15T04:07:11;95490.25;;;3.18;100.00
55032;BME280;40928;51.076;7.950;2023-01-15T04:09:38;95490.72;;;3.15;100.00
55032;BME280;40928;51.076;7.950;2023-01-15T04:12:07;95478.78;;;3.12;100.00
55032;BME280;40928;51.076;7.950;2023-01-15T04:14:38;95489.56;;;3.11;100.00
55032;BME280;40928;51.076;7.950;2023-01-15T04:17:07;95480.50;;;2.95;100.00
55032;BME280;40928;51.076;7.950;2023-01-15T04:19:32;95477.06;;;2.94;100.00
55032;BME280;40928;51.076;7.950;2023-01-15T04:22:01;95478.91;;;2.94;100.00
55032;BME280;40928;51.076;7.950;2023-01-15T04:24:27;95476.16;;;3.00;100.00
55032;BME280;40928;51.076;7.950;2023-01-15T04:26:52;95457.81;;;2.94;100.00
55032;BME280;40928;51.076;7.950;2023-01-15T04:29:18;95450.22;;;2.85;100.00
55032;BME280;40928;51.076;7.950;2023-01-15T04:31:44;95459.59;;;2.81;100.00
55032;BME280;40928;51.076;7.950;2023-01-15T04:34:13;95470.63;;;2.78;100.00
55032;BME280;40928;51.076;7.950;2023-01-15T04:36:39;95462.25;;;2.81;100.00
55032;BME280;40928;51.076;7.950;2023-01-15T04:39:04;95457.44;;;2.78;100.00
55032;BME280;40928;51.076;7.950;2023-01-15T04:41:30;95437.03;;;2.73;100.00
55032;BME280;40928;51.076;7.950;2023-01-15T04:44:14;95435.78;;;2.76;100.00
55032;BME280;40928;51.076;7.950;2023-01-15T04:46:42;95438.09;;;2.72;100.00
55032;BME280;40928;51.076;7.950;2023-01-15T04:49:11;95437.25;;;2.72;100.00
55032;BME280;40928;51.076;7.950;2023-01-15T04:51:37;95446.31;;;2.64;100.00
55032;BME280;40928;51.076;7.950;2023-01-15T04:54:05;95454.69;;;2.73;100.00
55032;BME280;40928;51.076;7.950;2023-01-15T04:56:32;95453.09;;;2.72;100.00
55032;BME280;40928;51.076;7.950;2023-01-15T04:59:01;95448.84;;;2.71;100.00
55032;BME280;40928;51.076;7.950;2023-01-15T05:01:27;95441.63;;;2.66;100.00
55032;BME280;40928;51.076;7.950;2023-01-15T05:03:53;95449.06;;;2.69;100.00
55032;BME280;40928;51.076;7.950;2023-01-15T05:06:18;95460.31;;;2.65;100.00
55032;BME280;40928;51.076;7.950;2023-01-15T05:08:44;95462.59;;;2.73;100.00
55032;BME280;40928;51.076;7.950;2023-01-15T05:11:10;95466.25;;;2.72;100.00
55032;BME280;40928;51.076;7.950;2023-01-15T05:13:36;95460.19;;;2.83;100.00
55032;BME280;40928;51.076;7.950;2023-01-15T05:18:33;95477.25;;;2.69;100.00
55032;BME280;40928;51.076;7.950;2023-01-15T05:20:58;95477.34;;;2.62;100.00
55032;BME280;40928;51.076;7.950;2023-01-15T05:23:24;95478.75;;;2.65;100.00
55032;BME280;40928;51.076;7.950;2023-01-15T05:25:49;95476.78;;;2.60;100.00
55032;BME280;40928;51.076;7.950;2023-01-15T05:28:15;95472.53;;;2.59;100.00
55032;BME280;40928;51.076;7.950;2023-01-15T05:30:40;95481.47;;;2.58;100.00
55032;BME280;40928;51.076;7.950;2023-01-15T05:33:06;95480.34;;;2.66;100.00
55032;BME280;40928;51.076;7.950;2023-01-15T05:35:31;95485.84;;;2.64;100.00
55032;BME280;40928;51.076;7.950;2023-01-15T05:37:57;95492.72;;;2.65;100.00
55032;BME280;40928;51.076;7.950;2023-01-15T05:40:22;95490.41;;;2.57;100.00
55032;BME280;40928;51.076;7.950;2023-01-15T05:42:48;95483.91;;;2.59;100.00
55032;BME280;40928;51.076;7.950;2023-01-15T05:45:13;95483.91;;;2.59;100.00
55032;BME280;40928;51.076;7.950;2023-01-15T05:47:39;95479.06;;;2.56;100.00
55032;BME280;40928;51.076;7.950;2023-01-15T05:50:04;95488.03;;;2.67;100.00
55032;BME280;40928;51.076;7.950;2023-01-15T05:52:30;95486.19;;;2.68;100.00
55032;BME280;40928;51.076;7.950;2023-01-15T05:54:55;95488.63;;;2.69;100.00
55032;BME280;40928;51.076;7.950;2023-01-15T05:57:21;95490.09;;;2.65;100.00
55032;BME280;40928;51.076;7.950;2023-01-15T05:59:46;95486.53;;;2.59;100.00
55032;BME280;40928;51.076;7.950;2023-01-15T06:02:14;95492.00;;;2.58;100.00
55032;BME280;40928;51.076;7.950;2023-01-15T06:04:40;95489.59;;;2.56;100.00
55032;BME280;40928;51.076;7.950;2023-01-15T06:07:05;95485.84;;;2.64;100.00
55032;BME280;40928;51.076;7.950;2023-01-15T06:09:31;95485.06;;;2.64;100.00
55032;BME280;40928;51.076;7.950;2023-01-15T06:11:56;95484.72;;;2.72;100.00
55032;BME280;40928;51.076;7.950;2023-01-15T06:14:22;95478.41;;;2.73;100.00
55032;BME280;40928;51.076;7.950;2023-01-15T06:16:48;95485.41;;;2.67;100.00
55032;BME280;40928;51.076;7.950;2023-01-15T06:19:14;95476.56;;;2.62;100.00
55032;BME280;40928;51.076;7.950;2023-01-15T06:21:39;95487.91;;;2.62;100.00
55032;BME280;40928;51.076;7.950;2023-01-15T06:24:06;95483.44;;;2.63;100.00
55032;BME280;40928;51.076;7.950;2023-01-15T06:26:32;95480.91;;;2.68;100.00
55032;BME280;40928;51.076;7.950;2023-01-15T06:28:57;95486.66;;;2.65;100.00
55032;BME280;40928;51.076;7.950;2023-01-15T06:31:23;95490.66;;;2.67;100.00
55032;BME280;40928;51.076;7.950;2023-01-15T06:33:51;95492.81;;;2.58;100.00
55032;BME280;40928;51.076;7.950;2023-01-15T06:36:19;95504.16;;;2.59;100.00
55032;BME280;40928;51.076;7.950;2023-01-15T06:38:48;95500.38;;;2.67;100.00
55032;BME280;40928;51.076;7.950;2023-01-15T06:41:16;95491.56;;;2.61;100.00
55032;BME280;40928;51.076;7.950;2023-01-15T06:44:00;95489.97;;;2.72;100.00
55032;BME280;40928;51.076;7.950;2023-01-15T06:46:46;95495.81;;;2.62;100.00
55032;BME280;40928;51.076;7.950;2023-01-15T06:49:32;95503.03;;;2.67;100.00
55032;BME280;40928;51.076;7.950;2023-01-15T06:51:58;95510.81;;;2.62;100.00
55032;BME280;40928;51.076;7.950;2023-01-15T06:54:24;95505.19;;;2.58;100.00
55032;BME280;40928;51.076;7.950;2023-01-15T06:56:50;95515.50;;;2.59;100.00
55032;BME280;40928;51.076;7.950;2023-01-15T06:59:16;95519.63;;;2.55;100.00
55032;BME280;40928;51.076;7.950;2023-01-15T07:01:43;95529.47;;;2.48;100.00
55032;BME280;40928;51.076;7.950;2023-01-15T07:04:08;95523.06;;;2.56;100.00
55032;BME280;40928;51.076;7.950;2023-01-15T07:06:34;95519.19;;;2.58;100.00
55032;BME280;40928;51.076;7.950;2023-01-15T07:08:59;95519.38;;;2.57;100.00
55032;BME280;40928;51.076;7.950;2023-01-15T07:11:25;95524.44;;;2.58;100.00
55032;BME280;40928;51.076;7.950;2023-01-15T07:13:50;95510.34;;;2.53;100.00
55032;BME280;40928;51.076;7.950;2023-01-15T07:16:36;95529.22;;;2.50;100.00
55032;BME280;40928;51.076;7.950;2023-01-15T07:19:03;95512.16;;;2.52;100.00
55032;BME280;40928;51.076;7.950;2023-01-15T07:21:29;95515.91;;;2.44;100.00
55032;BME280;40928;51.076;7.950;2023-01-15T07:23:57;95515.91;;;2.44;100.00
55032;BME280;40928;51.076;7.950;2023-01-15T07:26:23;95509.97;;;2.49;100.00
55032;BME280;40928;51.076;7.950;2023-01-15T07:28:49;95517.31;;;2.47;100.00
55032;BME280;40928;51.076;7.950;2023-01-15T07:31:14;95509.28;;;2.42;100.00
55032;BME280;40928;51.076;7.950;2023-01-15T07:33:40;95517.53;;;2.46;100.00
55032;BME280;40928;51.076;7.950;2023-01-15T07:36:06;95522.94;;;2.51;100.00
55032;BME280;40928;51.076;7.950;2023-01-15T07:38:32;95524.75;;;2.50;100.00
55032;BME280;40928;51.076;7.950;2023-01-15T07:40:58;95526.75;;;2.55;100.00
55032;BME280;40928;51.076;7.950;2023-01-15T07:43:42;95533.97;;;2.59;100.00
55032;BME280;40928;51.076;7.950;2023-01-15T07:46:27;95553.56;;;2.64;100.00
55032;BME280;40928;51.076;7.950;2023-01-15T07:49:11;95554.22;;;2.47;100.00
55032;BME280;40928;51.076;7.950;2023-01-15T07:51:56;95555.50;;;2.56;100.00
55032;BME280;40928;51.076;7.950;2023-01-15T07:54:23;95546.22;;;2.54;100.00
55032;BME280;40928;51.076;7.950;2023-01-15T07:56:50;95551.25;;;2.55;100.00
55032;BME280;40928;51.076;7.950;2023-01-15T07:59:17;95558.56;;;2.53;100.00
55032;BME280;40928;51.076;7.950;2023-01-15T08:01:42;95572.91;;;2.57;100.00
55032;BME280;40928;51.076;7.950;2023-01-15T08:04:08;95565.25;;;2.68;100.00
55032;BME280;40928;51.076;7.950;2023-01-15T08:06:34;95571.22;;;2.63;100.00
55032;BME280;40928;51.076;7.950;2023-01-15T08:09:00;95563.88;;;2.65;100.00
55032;BME280;40928;51.076;7.950;2023-01-15T08:11:29;95565.34;;;2.61;100.00
55032;BME280;40928;51.076;7.950;2023-01-15T08:14:17;95573.25;;;2.61;100.00
55032;BME280;40928;51.076;7.950;2023-01-15T08:17:02;95570.28;;;2.57;100.00
55032;BME280;40928;51.076;7.950;2023-01-15T08:19:31;95578.97;;;2.58;100.00
55032;BME280;40928;51.076;7.950;2023-01-15T08:21:58;95577.34;;;2.57;100.00
55032;BME280;40928;51.076;7.950;2023-01-15T08:24:28;95579.94;;;2.64;100.00
55032;BME280;40928;51.076;7.950;2023-01-15T08:26:54;95589.06;;;2.61;100.00
55032;BME280;40928;51.076;7.950;2023-01-15T08:29:22;95586.31;;;2.56;100.00
55032;BME280;40928;51.076;7.950;2023-01-15T08:31:48;95589.78;;;2.68;100.00
55032;BME280;40928;51.076;7.950;2023-01-15T08:34:14;95580.81;;;2.57;100.00
55032;BME280;40928;51.076;7.950;2023-01-15T08:36:41;95592.16;;;2.58;100.00
55032;BME280;40928;51.076;7.950;2023-01-15T08:39:07;95584.81;;;2.60;100.00
55032;BME280;40928;51.076;7.950;2023-01-15T08:41:34;95590.53;;;2.57;100.00
55032;BME280;40928;51.076;7.950;2023-01-15T08:44:05;95587.91;;;2.57;100.00
55032;BME280;40928;51.076;7.950;2023-01-15T08:46:32;95603.00;;;2.50;100.00
55032;BME280;40928;51.076;7.950;2023-01-15T08:48:59;95601.06;;;2.57;100.00
55032;BME280;40928;51.076;7.950;2023-01-15T08:51:25;95598.31;;;2.52;100.00
55032;BME280;40928;51.076;7.950;2023-01-15T08:53:52;95599.56;;;2.49;100.00
55032;BME280;40928;51.076;7.950;2023-01-15T08:56:23;95604.19;;;2.54;100.00
55032;BME280;40928;51.076;7.950;2023-01-15T08:58:49;95616.34;;;2.55;100.00
55032;BME280;40928;51.076;7.950;2023-01-15T09:01:19;95615.75;;;2.53;100.00
55032;BME280;40928;51.076;7.950;2023-01-15T09:03:49;95614.94;;;2.52;100.00
55032;BME280;40928;51.076;7.950;2023-01-15T09:06:16;95616.97;;;2.50;100.00
55032;BME280;40928;51.076;7.950;2023-01-15T09:08:42;95618.47;;;2.46;100.00
55032;BME280;40928;51.076;7.950;2023-01-15T09:11:12;95629.13;;;2.51;100.00
55032;BME280;40928;51.076;7.950;2023-01-15T09:13:59;95642.00;;;2.59;100.00
55032;BME280;40928;51.076;7.950;2023-01-15T09:16:26;95641.16;;;2.47;100.00
55032;BME280;40928;51.076;7.950;2023-01-15T09:18:58;95632.94;;;2.37;100.00
55032;BME280;40928;51.076;7.950;2023-01-15T09:21:29;95644.50;;;2.36;100.00
55032;BME280;40928;51.076;7.950;2023-01-15T09:23:56;95656.31;;;2.33;100.00
55032;BME280;40928;51.076;7.950;2023-01-15T09:28:52;95645.63;;;2.28;100.00
55032;BME280;40928;51.076;7.950;2023-01-15T09:31:18;95659.00;;;2.26;100.00
55032;BME280;40928;51.076;7.950;2023-01-15T09:33:46;95652.91;;;2.26;100.00
55032;BME280;40928;51.076;7.950;2023-01-15T09:36:17;95643.13;;;2.33;100.00
55032;BME280;40928;51.076;7.950;2023-01-15T09:47:12;95657.41;;;2.25;100.00
55032;BME280;40928;51.076;7.950;2023-01-15T09:49:53;95653.38;;;2.04;100.00
55032;BME280;40928;51.076;7.950;2023-01-15T09:52:38;95662.50;;;2.20;100.00
55032;BME280;40928;51.076;7.950;2023-01-15T09:57:42;95653.91;;;2.13;100.00
55032;BME280;40928;51.076;7.950;2023-01-15T10:00:18;95651.53;;;2.23;100.00
55032;BME280;40928;51.076;7.950;2023-01-15T10:02:58;95657.56;;;2.31;100.00
55032;BME280;40928;51.076;7.950;2023-01-15T10:05:32;95658.56;;;2.30;100.00
55032;BME280;40928;51.076;7.950;2023-01-15T10:08:20;95648.03;;;2.30;100.00
55032;BME280;40928;51.076;7.950;2023-01-15T10:11:01;95640.56;;;2.26;100.00
55032;BME280;40928;51.076;7.950;2023-01-15T10:13:40;95638.44;;;2.35;100.00
55032;BME280;40928;51.076;7.950;2023-01-15T10:16:12;95643.88;;;2.22;100.00
55032;BME280;40928;51.076;7.950;2023-01-15T10:18:45;95654.78;;;2.25;100.00
55032;BME280;40928;51.076;7.950;2023-01-15T10:24:29;95639.25;;;2.36;100.00
55032;BME280;40928;51.076;7.950;2023-01-15T10:26:58;95646.88;;;2.25;100.00
55032;BME280;40928;51.076;7.950;2023-01-15T10:29:44;95634.72;;;2.43;100.00
55032;BME280;40928;51.076;7.950;2023-01-15T10:46:15;95630.06;;;2.57;100.00
55032;BME280;40928;51.076;7.950;2023-01-15T10:48:47;95667.19;;;2.55;100.00
55032;BME280;40928;51.076;7.950;2023-01-15T10:51:32;95645.22;;;2.62;100.00
55032;BME280;40928;51.076;7.950;2023-01-15T10:54:34;95644.22;;;2.63;100.00
55032;BME280;40928;51.076;7.950;2023-01-15T10:57:32;95657.59;;;2.61;100.00
55032;BME280;40928;51.076;7.950;2023-01-15T11:00:02;95659.50;;;2.72;100.00
55032;BME280;40928;51.076;7.950;2023-01-15T11:02:49;95665.25;;;2.81;100.00
55032;BME280;40928;51.076;7.950;2023-01-15T11:05:19;95661.56;;;2.82;100.00
55032;BME280;40928;51.076;7.950;2023-01-15T11:07:46;95653.41;;;2.72;100.00
55032;BME280;40928;51.076;7.950;2023-01-15T11:10:18;95652.81;;;2.70;100.00
55032;BME280;40928;51.076;7.950;2023-01-15T11:15:55;95663.00;;;2.97;100.00
55032;BME280;40928;51.076;7.950;2023-01-15T11:18:41;95664.53;;;3.04;100.00
55032;BME280;40928;51.076;7.950;2023-01-15T11:21:27;95667.75;;;3.07;100.00
55032;BME280;40928;51.076;7.950;2023-01-15T11:23:57;95653.31;;;3.09;100.00
55032;BME280;40928;51.076;7.950;2023-01-15T11:26:27;95654.00;;;3.16;100.00
55032;BME280;40928;51.076;7.950;2023-01-15T11:28:55;95651.19;;;3.30;100.00
55032;BME280;40928;51.076;7.950;2023-01-15T11:31:35;95647.06;;;3.34;100.00
55032;BME280;40928;51.076;7.950;2023-01-15T11:34:04;95655.31;;;3.26;100.00
55032;BME280;40928;51.076;7.950;2023-01-15T11:36:32;95623.66;;;3.26;100.00
55032;BME280;40928;51.076;7.950;2023-01-15T11:38:59;95629.38;;;3.23;100.00
55032;BME280;40928;51.076;7.950;2023-01-15T11:41:32;95632.72;;;3.18;100.00
55032;BME280;40928;51.076;7.950;2023-01-15T11:44:18;95641.84;;;3.15;100.00
55032;BME280;40928;51.076;7.950;2023-01-15T11:47:10;95641.41;;;3.18;100.00
55032;BME280;40928;51.076;7.950;2023-01-15T11:49:54;95641.53;;;3.24;100.00
55032;BME280;40928;51.076;7.950;2023-01-15T11:52:45;95631.09;;;3.29;100.00
55032;BME280;40928;51.076;7.950;2023-01-15T11:55:16;95637.97;;;3.30;100.00
55032;BME280;40928;51.076;7.950;2023-01-15T11:57:44;95619.19;;;3.38;100.00
55032;BME280;40928;51.076;7.950;2023-01-15T12:02:51;95629.19;;;3.36;100.00
55032;BME280;40928;51.076;7.950;2023-01-15T12:05:23;95610.91;;;3.23;100.00
55032;BME280;40928;51.076;7.950;2023-01-15T12:07:51;95626.84;;;3.28;100.00
55032;BME280;40928;51.076;7.950;2023-01-15T12:10:24;95628.34;;;3.24;100.00
55032;BME280;40928;51.076;7.950;2023-01-15T12:13:46;95634.00;;;3.39;100.00
55032;BME280;40928;51.076;7.950;2023-01-15T12:33:31;95621.03;;;3.38;100.00
55032;BME280;40928;51.076;7.950;2023-01-15T12:36:32;95617.81;;;3.47;100.00
55032;BME280;40928;51.076;7.950;2023-01-15T12:42:06;95604.59;;;3.35;100.00
55032;BME280;40928;51.076;7.950;2023-01-15T12:44:52;95613.34;;;3.36;100.00
55032;BME280;40928;51.076;7.950;2023-01-15T12:47:51;95616.56;;;3.38;100.00
55032;BME280;40928;51.076;7.950;2023-01-15T12:53:11;95621.50;;;3.34;100.00
55032;BME280;40928;51.076;7.950;2023-01-15T12:55:47;95609.44;;;3.39;100.00
55032;BME280;40928;51.076;7.950;2023-01-15T13:01:28;95625.41;;;3.56;100.00
55032;BME280;40928;51.076;7.950;2023-01-15T13:04:12;95612.09;;;3.62;100.00
55032;BME280;40928;51.076;7.950;2023-01-15T13:06:45;95615.09;;;3.66;100.00
55032;BME280;40928;51.076;7.950;2023-01-15T13:12:01;95615.41;;;3.70;99.92
55032;BME280;40928;51.076;7.950;2023-01-15T13:14:30;95606.91;;;3.68;100.00
55032;BME280;40928;51.076;7.950;2023-01-15T13:20:18;95626.56;;;3.72;99.76
55032;BME280;40928;51.076;7.950;2023-01-15T13:23:08;95622.41;;;3.52;100.00
55032;BME280;40928;51.076;7.950;2023-01-15T13:29:07;95632.53;;;3.55;100.00
55032;BME280;40928;51.076;7.950;2023-01-15T13:34:12;95643.06;;;3.55;99.15
55032;BME280;40928;51.076;7.950;2023-01-15T13:36:50;95647.78;;;3.53;99.57
55032;BME280;40928;51.076;7.950;2023-01-15T13:39:23;95645.94;;;3.54;99.55
55032;BME280;40928;51.076;7.950;2023-01-15T13:41:52;95638.81;;;3.54;100.00
55032;BME280;40928;51.076;7.950;2023-01-15T13:44:46;95651.00;;;3.55;100.00
55032;BME280;40928;51.076;7.950;2023-01-15T13:47:18;95655.78;;;3.46;99.83
55032;BME280;40928;51.076;7.950;2023-01-15T13:50:14;95665.47;;;3.53;99.99
55032;BME280;40928;51.076;7.950;2023-01-15T13:52:41;95656.50;;;3.54;98.30
55032;BME280;40928;51.076;7.950;2023-01-15T13:55:23;95651.09;;;3.48;98.41
55032;BME280;40928;51.076;7.950;2023-01-15T13:57:51;95649.38;;;3.42;100.00
55032;BME280;40928;51.076;7.950;2023-01-15T14:00:35;95653.16;;;3.46;100.00
55032;BME280;40928;51.076;7.950;2023-01-15T14:03:25;95656.38;;;3.48;99.48
55032;BME280;40928;51.076;7.950;2023-01-15T14:06:05;95644.94;;;3.55;99.27
55032;BME280;40928;51.076;7.950;2023-01-15T14:08:47;95661.22;;;3.52;97.21
55032;BME280;40928;51.076;7.950;2023-01-15T14:23:29;95658.13;;;3.55;97.14
55032;BME280;40928;51.076;7.950;2023-01-15T14:29:36;95659.84;;;3.61;96.50
55032;BME280;40928;51.076;7.950;2023-01-15T14:34:26;95656.84;;;3.57;97.72
55032;BME280;40928;51.076;7.950;2023-01-15T14:36:55;95662.72;;;3.71;96.32
55032;BME280;40928;51.076;7.950;2023-01-15T14:42:14;95659.72;;;3.68;94.75
55032;BME280;40928;51.076;7.950;2023-01-15T14:45:06;95668.78;;;3.60;96.54
55032;BME280;40928;51.076;7.950;2023-01-15T14:47:35;95672.69;;;3.57;97.75
55032;BME280;40928;51.076;7.950;2023-01-15T14:55:49;95687.16;;;3.66;95.04
55032;BME280;40928;51.076;7.950;2023-01-15T14:58:47;95683.03;;;3.71;93.52
55032;BME280;40928;51.076;7.950;2023-01-15T15:01:34;95682.69;;;3.67;94.48
55032;BME280;40928;51.076;7.950;2023-01-15T15:07:18;95677.06;;;3.75;93.50
55032;BME280;40928;51.076;7.950;2023-01-15T15:10:16;95673.75;;;3.68;94.37
55032;BME280;40928;51.076;7.950;2023-01-15T15:13:08;95682.69;;;3.67;93.60
55032;BME280;40928;51.076;7.950;2023-01-15T15:16:00;95694.97;;;3.61;94.50
55032;BME280;40928;51.076;7.950;2023-01-15T15:18:54;95692.66;;;3.65;94.36
55032;BME280;40928;51.076;7.950;2023-01-15T15:21:30;95698.66;;;3.72;92.89
55032;BME280;40928;51.076;7.950;2023-01-15T15:24:31;95699.31;;;3.68;93.16
55032;BME280;40928;51.076;7.950;2023-01-15T15:27:08;95690.84;;;3.65;93.23
55032;BME280;40928;51.076;7.950;2023-01-15T15:29:33;95690.03;;;3.65;94.31
55032;BME280;40928;51.076;7.950;2023-01-15T15:31:59;95694.97;;;3.61;93.62
55032;BME280;40928;51.076;7.950;2023-01-15T15:34:37;95686.34;;;3.54;95.55
55032;BME280;40928;51.076;7.950;2023-01-15T15:37:18;95679.81;;;3.57;95.39